sensor_id;sensor_type;location;lat;lon;timestamp;P1;durP1;ratioP1;P2;durP2;ratioP2
54561;SDS011;69047;53.358;-1.486;2024-01-06T00:00:35;8.07;;;4.03;;
54561;SDS011;69047;53.358;-1.486;2024-01-06T00:03:00;6.40;;;4.05;;
54561;SDS011;69047;53.358;-1.486;2024-01-06T00:05:26;5.85;;;4.60;;
54561;SDS011;69047;53.358;-1.486;2024-01-06T00:07:51;7.47;;;3.75;;
54561;SDS011;69047;53.358;-1.486;2024-01-06T00:10:19;8.35;;;3.72;;
54561;SDS011;69047;53.358;-1.486;2024-01-06T00:12:45;9.18;;;3.85;;
54561;SDS011;69047;53.358;-1.486;2024-01-06T00:15:10;10.50;;;4.28;;
54561;SDS011;69047;53.358;-1.486;2024-01-06T00:17:36;6.00;;;4.32;;
54561;SDS011;69047;53.358;-1.486;2024-01-06T00:20:02;5.90;;;3.50;;
54561;SDS011;69047;53.358;-1.486;2024-01-06T00:22:27;5.03;;;3.63;;
54561;SDS011;69047;53.358;-1.486;2024-01-06T00:24:53;6.10;;;3.72;;
54561;SDS011;69047;53.358;-1.486;2024-01-06T00:27:18;6.03;;;4.45;;
54561;SDS011;69047;53.358;-1.486;2024-01-06T00:29:44;5.72;;;3.45;;
54561;SDS011;69047;53.358;-1.486;2024-01-06T00:32:10;5.45;;;3.22;;
54561;SDS011;69047;53.358;-1.486;2024-01-06T00:34:35;6.85;;;3.90;;
54561;SDS011;69047;53.358;-1.486;2024-01-06T00:37:01;6.40;;;3.90;;
54561;SDS011;69047;53.358;-1.486;2024-01-06T00:39:26;10.73;;;3.78;;
54561;SDS011;69047;53.358;-1.486;2024-01-06T00:41:52;5.43;;;3.60;;
54561;SDS011;69047;53.358;-1.486;2024-01-06T00:44:23;5.82;;;3.15;;
54561;SDS011;69047;53.358;-1.486;2024-01-06T00:46:49;7.35;;;3.40;;
54561;SDS011;69047;53.358;-1.486;2024-01-06T00:49:14;6.32;;;3.95;;
54561;SDS011;69047;53.358;-1.486;2024-01-06T00:51:39;6.18;;;3.45;;
54561;SDS011;69047;53.358;-1.486;2024-01-06T00:54:05;5.97;;;2.38;;
54561;SDS011;69047;53.358;-1.486;2024-01-06T00:56:31;5.22;;;3.17;;
54561;SDS011;69047;53.358;-1.486;2024-01-06T00:58:56;4.53;;;2.72;;
54561;SDS011;69047;53.358;-1.486;2024-01-06T01:01:22;4.55;;;3.15;;
54561;SDS011;69047;53.358;-1.486;2024-01-06T01:03:47;6.30;;;2.60;;
54561;SDS011;69047;53.358;-1.486;2024-01-06T01:06:13;4.40;;;2.58;;
54561;SDS011;69047;53.358;-1.486;2024-01-06T01:08:38;4.75;;;2.42;;
54561;SDS011;69047;53.358;-1.486;2024-01-06T01:11:04;4.88;;;2.33;;
54561;SDS011;69047;53.358;-1.486;2024-01-06T01:13:29;6.18;;;2.70;;
54561;SDS011;69047;53.358;-1.486;2024-01-06T01:15:55;4.40;;;2.08;;
54561;SDS011;69047;53.358;-1.486;2024-01-06T01:18:21;3.97;;;2.42;;
54561;SDS011;69047;53.358;-1.486;2024-01-06T01:20:46;4.30;;;2.35;;
54561;SDS011;69047;53.358;-1.486;2024-01-06T01:23:12;3.42;;;2.38;;
54561;SDS011;69047;53.358;-1.486;2024-01-06T01:25:37;4.28;;;2.28;;
54561;SDS011;69047;53.358;-1.486;2024-01-06T01:28:03;4.45;;;2.10;;
54561;SDS011;69047;53.358;-1.486;2024-01-06T01:30:29;4.07;;;2.47;;
54561;SDS011;69047;53.358;-1.486;2024-01-06T01:32:54;6.03;;;2.70;;
54561;SDS011;69047;53.358;-1.486;2024-01-06T01:35:20;4.22;;;2.20;;
54561;SDS011;69047;53.358;-1.486;2024-01-06T01:37:45;5.35;;;2.53;;
54561;SDS011;69047;53.358;-1.486;2024-01-06T01:40:11;4.95;;;2.72;;
54561;SDS011;69047;53.358;-1.486;2024-01-06T01:42:36;2.70;;;2.13;;
54561;SDS011;69047;53.358;-1.486;2024-01-06T01:45:02;3.47;;;2.22;;
54561;SDS011;69047;53.358;-1.486;2024-01-06T01:47:29;3.85;;;2.65;;
54561;SDS011;69047;53.358;-1.486;2024-01-06T01:49:54;3.45;;;2.05;;
54561;SDS011;69047;53.358;-1.486;2024-01-06T01:52:21;4.95;;;2.70;;
54561;SDS011;69047;53.358;-1.486;2024-01-06T01:54:46;4.32;;;3.08;;
54561;SDS011;69047;53.358;-1.486;2024-01-06T01:57:12;6.00;;;2.80;;
54561;SDS011;69047;53.358;-1.486;2024-01-06T01:59:39;5.80;;;2.42;;
54561;SDS011;69047;53.358;-1.486;2024-01-06T02:02:05;4.00;;;2.33;;
54561;SDS011;69047;53.358;-1.486;2024-01-06T02:04:31;4.57;;;3.10;;
54561;SDS011;69047;53.358;-1.486;2024-01-06T02:06:57;6.03;;;2.78;;
54561;SDS011;69047;53.358;-1.486;2024-01-06T02:09:22;7.07;;;2.47;;
54561;SDS011;69047;53.358;-1.486;2024-01-06T02:11:52;7.65;;;2.65;;
54561;SDS011;69047;53.358;-1.486;2024-01-06T02:14:18;11.93;;;3.40;;
54561;SDS011;69047;53.358;-1.486;2024-01-06T02:16:47;7.03;;;3.05;;
54561;SDS011;69047;53.358;-1.486;2024-01-06T02:19:13;4.07;;;2.20;;
54561;SDS011;69047;53.358;-1.486;2024-01-06T02:21:41;4.60;;;2.17;;
54561;SDS011;69047;53.358;-1.486;2024-01-06T02:24:12;3.83;;;1.98;;
54561;SDS011;69047;53.358;-1.486;2024-01-06T02:26:38;4.88;;;2.25;;
54561;SDS011;69047;53.358;-1.486;2024-01-06T02:29:07;3.90;;;2.25;;
54561;SDS011;69047;53.358;-1.486;2024-01-06T02:31:32;4.80;;;2.13;;
54561;SDS011;69047;53.358;-1.486;2024-01-06T02:33:58;3.08;;;2.00;;
54561;SDS011;69047;53.358;-1.486;2024-01-06T02:36:24;7.53;;;2.85;;
54561;SDS011;69047;53.358;-1.486;2024-01-06T02:38:50;5.60;;;2.30;;
54561;SDS011;69047;53.358;-1.486;2024-01-06T02:41:15;6.68;;;2.45;;
54561;SDS011;69047;53.358;-1.486;2024-01-06T02:43:41;7.43;;;2.35;;
54561;SDS011;69047;53.358;-1.486;2024-01-06T02:46:07;6.43;;;2.92;;
54561;SDS011;69047;53.358;-1.486;2024-01-06T02:48:32;6.10;;;2.47;;
54561;SDS011;69047;53.358;-1.486;2024-01-06T02:50:58;3.63;;;1.83;;
54561;SDS011;69047;53.358;-1.486;2024-01-06T02:53:23;6.10;;;2.35;;
54561;SDS011;69047;53.358;-1.486;2024-01-06T02:55:49;5.63;;;2.70;;
54561;SDS011;69047;53.358;-1.486;2024-01-06T02:58:15;3.47;;;2.45;;
54561;SDS011;69047;53.358;-1.486;2024-01-06T03:00:43;6.22;;;2.40;;
54561;SDS011;69047;53.358;-1.486;2024-01-06T03:03:17;3.97;;;2.28;;
54561;SDS011;69047;53.358;-1.486;2024-01-06T03:05:43;4.18;;;2.28;;
54561;SDS011;69047;53.358;-1.486;2024-01-06T03:08:09;4.28;;;2.40;;
54561;SDS011;69047;53.358;-1.486;2024-01-06T03:10:34;4.90;;;2.28;;
54561;SDS011;69047;53.358;-1.486;2024-01-06T03:13:01;4.82;;;2.33;;
54561;SDS011;69047;53.358;-1.486;2024-01-06T03:15:28;7.80;;;2.33;;
54561;SDS011;69047;53.358;-1.486;2024-01-06T03:17:56;4.53;;;1.75;;
54561;SDS011;69047;53.358;-1.486;2024-01-06T03:20:22;5.45;;;2.00;;
54561;SDS011;69047;53.358;-1.486;2024-01-06T03:22:47;3.67;;;1.85;;
54561;SDS011;69047;53.358;-1.486;2024-01-06T03:25:13;8.07;;;2.25;;
54561;SDS011;69047;53.358;-1.486;2024-01-06T03:27:38;5.25;;;2.40;;
54561;SDS011;69047;53.358;-1.486;2024-01-06T03:30:04;5.00;;;2.65;;
54561;SDS011;69047;53.358;-1.486;2024-01-06T03:32:30;5.55;;;2.83;;
54561;SDS011;69047;53.358;-1.486;2024-01-06T03:34:55;5.70;;;2.85;;
54561;SDS011;69047;53.358;-1.486;2024-01-06T03:37:21;3.95;;;2.00;;
54561;SDS011;69047;53.358;-1.486;2024-01-06T03:39:47;6.95;;;2.67;;
54561;SDS011;69047;53.358;-1.486;2024-01-06T03:42:12;2.72;;;1.67;;
54561;SDS011;69047;53.358;-1.486;2024-01-06T03:44:38;4.68;;;1.65;;
54561;SDS011;69047;53.358;-1.486;2024-01-06T03:47:03;3.25;;;1.58;;
54561;SDS011;69047;53.358;-1.486;2024-01-06T03:49:29;7.20;;;2.35;;
54561;SDS011;69047;53.358;-1.486;2024-01-06T03:51:54;6.20;;;1.60;;
54561;SDS011;69047;53.358;-1.486;2024-01-06T03:54:21;3.97;;;2.00;;
54561;SDS011;69047;53.358;-1.486;2024-01-06T03:56:51;4.40;;;1.52;;
54561;SDS011;69047;53.358;-1.486;2024-01-06T03:59:17;5.20;;;1.30;;
54561;SDS011;69047;53.358;-1.486;2024-01-06T04:01:42;5.82;;;1.40;;
54561;SDS011;69047;53.358;-1.486;2024-01-06T04:04:07;4.93;;;1.52;;
54561;SDS011;69047;53.358;-1.486;2024-01-06T04:06:33;3.60;;;1.42;;
54561;SDS011;69047;53.358;-1.486;2024-01-06T04:08:59;1.80;;;0.85;;
54561;SDS011;69047;53.358;-1.486;2024-01-06T04:11:25;3.30;;;1.50;;
54561;SDS011;69047;53.358;-1.486;2024-01-06T04:13:51;3.03;;;1.10;;
54561;SDS011;69047;53.358;-1.486;2024-01-06T04:16:16;4.72;;;1.55;;
54561;SDS011;69047;53.358;-1.486;2024-01-06T04:18:42;4.70;;;1.40;;
54561;SDS011;69047;53.358;-1.486;2024-01-06T04:21:07;5.60;;;1.63;;
54561;SDS011;69047;53.358;-1.486;2024-01-06T04:23:33;2.80;;;1.30;;
54561;SDS011;69047;53.358;-1.486;2024-01-06T04:25:59;7.03;;;2.40;;
54561;SDS011;69047;53.358;-1.486;2024-01-06T04:28:25;6.15;;;1.13;;
54561;SDS011;69047;53.358;-1.486;2024-01-06T04:30:50;8.48;;;1.38;;
54561;SDS011;69047;53.358;-1.486;2024-01-06T04:33:16;5.88;;;1.48;;
54561;SDS011;69047;53.358;-1.486;2024-01-06T04:35:41;2.42;;;0.98;;
54561;SDS011;69047;53.358;-1.486;2024-01-06T04:38:07;2.75;;;1.20;;
54561;SDS011;69047;53.358;-1.486;2024-01-06T04:40:33;5.82;;;1.30;;
54561;SDS011;69047;53.358;-1.486;2024-01-06T04:42:59;6.28;;;2.05;;
54561;SDS011;69047;53.358;-1.486;2024-01-06T04:45:25;7.65;;;1.63;;
54561;SDS011;69047;53.358;-1.486;2024-01-06T04:47:53;6.95;;;1.50;;
54561;SDS011;69047;53.358;-1.486;2024-01-06T04:50:18;4.60;;;2.15;;
54561;SDS011;69047;53.358;-1.486;2024-01-06T04:52:44;7.07;;;1.42;;
54561;SDS011;69047;53.358;-1.486;2024-01-06T04:55:09;5.75;;;1.52;;
54561;SDS011;69047;53.358;-1.486;2024-01-06T04:57:35;11.40;;;1.52;;
54561;SDS011;69047;53.358;-1.486;2024-01-06T05:00:01;3.85;;;1.60;;
54561;SDS011;69047;53.358;-1.486;2024-01-06T05:02:28;6.85;;;2.03;;
54561;SDS011;69047;53.358;-1.486;2024-01-06T05:04:54;11.68;;;1.20;;
54561;SDS011;69047;53.358;-1.486;2024-01-06T05:07:19;3.20;;;1.52;;
54561;SDS011;69047;53.358;-1.486;2024-01-06T05:09:44;5.28;;;1.40;;
54561;SDS011;69047;53.358;-1.486;2024-01-06T05:12:10;2.13;;;1.08;;
54561;SDS011;69047;53.358;-1.486;2024-01-06T05:14:35;4.55;;;1.80;;
54561;SDS011;69047;53.358;-1.486;2024-01-06T05:17:01;4.93;;;1.45;;
54561;SDS011;69047;53.358;-1.486;2024-01-06T05:19:26;5.20;;;1.35;;
54561;SDS011;69047;53.358;-1.486;2024-01-06T05:21:51;3.47;;;1.45;;
54561;SDS011;69047;53.358;-1.486;2024-01-06T05:24:17;2.97;;;1.70;;
54561;SDS011;69047;53.358;-1.486;2024-01-06T05:26:44;9.85;;;1.83;;
54561;SDS011;69047;53.358;-1.486;2024-01-06T05:29:09;6.25;;;2.22;;
54561;SDS011;69047;53.358;-1.486;2024-01-06T05:31:35;5.10;;;1.58;;
54561;SDS011;69047;53.358;-1.486;2024-01-06T05:34:00;5.90;;;1.70;;
54561;SDS011;69047;53.358;-1.486;2024-01-06T05:36:26;6.00;;;1.60;;
54561;SDS011;69047;53.358;-1.486;2024-01-06T05:38:51;6.63;;;1.80;;
54561;SDS011;69047;53.358;-1.486;2024-01-06T05:41:17;8.20;;;2.15;;
54561;SDS011;69047;53.358;-1.486;2024-01-06T05:43:42;11.07;;;1.73;;
54561;SDS011;69047;53.358;-1.486;2024-01-06T05:46:07;11.40;;;2.17;;
54561;SDS011;69047;53.358;-1.486;2024-01-06T05:48:33;4.22;;;1.77;;
54561;SDS011;69047;53.358;-1.486;2024-01-06T05:50:59;7.53;;;1.73;;
54561;SDS011;69047;53.358;-1.486;2024-01-06T05:53:24;4.55;;;1.90;;
54561;SDS011;69047;53.358;-1.486;2024-01-06T05:55:50;5.32;;;1.75;;
54561;SDS011;69047;53.358;-1.486;2024-01-06T05:58:15;10.15;;;2.33;;
54561;SDS011;69047;53.358;-1.486;2024-01-06T06:00:41;5.43;;;2.17;;
54561;SDS011;69047;53.358;-1.486;2024-01-06T06:03:06;9.82;;;2.25;;
54561;SDS011;69047;53.358;-1.486;2024-01-06T06:05:32;11.73;;;2.45;;
54561;SDS011;69047;53.358;-1.486;2024-01-06T06:07:58;13.25;;;2.97;;
54561;SDS011;69047;53.358;-1.486;2024-01-06T06:10:23;6.38;;;2.40;;
54561;SDS011;69047;53.358;-1.486;2024-01-06T06:12:55;7.50;;;2.47;;
54561;SDS011;69047;53.358;-1.486;2024-01-06T06:15:21;10.43;;;2.40;;
54561;SDS011;69047;53.358;-1.486;2024-01-06T06:17:49;3.65;;;2.42;;
54561;SDS011;69047;53.358;-1.486;2024-01-06T06:20:14;5.88;;;2.33;;
54561;SDS011;69047;53.358;-1.486;2024-01-06T06:22:40;12.38;;;2.58;;
54561;SDS011;69047;53.358;-1.486;2024-01-06T06:25:05;8.98;;;3.25;;
54561;SDS011;69047;53.358;-1.486;2024-01-06T06:27:31;8.15;;;2.47;;
54561;SDS011;69047;53.358;-1.486;2024-01-06T06:29:57;8.77;;;2.58;;
54561;SDS011;69047;53.358;-1.486;2024-01-06T06:32:22;11.80;;;3.40;;
54561;SDS011;69047;53.358;-1.486;2024-01-06T06:34:48;9.90;;;3.05;;
54561;SDS011;69047;53.358;-1.486;2024-01-06T06:37:13;9.90;;;2.97;;
54561;SDS011;69047;53.358;-1.486;2024-01-06T06:39:38;10.45;;;3.40;;
54561;SDS011;69047;53.358;-1.486;2024-01-06T06:42:04;8.48;;;3.60;;
54561;SDS011;69047;53.358;-1.486;2024-01-06T06:44:29;18.10;;;3.83;;
54561;SDS011;69047;53.358;-1.486;2024-01-06T06:46:55;12.77;;;4.57;;
54561;SDS011;69047;53.358;-1.486;2024-01-06T06:49:21;9.55;;;3.38;;
54561;SDS011;69047;53.358;-1.486;2024-01-06T06:51:47;6.43;;;3.00;;
54561;SDS011;69047;53.358;-1.486;2024-01-06T06:54:13;12.52;;;4.47;;
54561;SDS011;69047;53.358;-1.486;2024-01-06T06:56:52;10.50;;;5.45;;
54561;SDS011;69047;53.358;-1.486;2024-01-06T06:59:17;23.65;;;10.38;;
54561;SDS011;69047;53.358;-1.486;2024-01-06T07:01:43;44.90;;;17.08;;
54561;SDS011;69047;53.358;-1.486;2024-01-06T07:04:08;57.67;;;20.63;;
54561;SDS011;69047;53.358;-1.486;2024-01-06T07:06:33;62.80;;;22.50;;
54561;SDS011;69047;53.358;-1.486;2024-01-06T07:08:59;52.72;;;19.85;;
54561;SDS011;69047;53.358;-1.486;2024-01-06T07:11:25;47.80;;;18.27;;
54561;SDS011;69047;53.358;-1.486;2024-01-06T07:13:50;48.10;;;18.13;;
54561;SDS011;69047;53.358;-1.486;2024-01-06T07:16:15;31.88;;;14.40;;
54561;SDS011;69047;53.358;-1.486;2024-01-06T07:18:41;36.40;;;14.85;;
54561;SDS011;69047;53.358;-1.486;2024-01-06T07:21:06;33.97;;;14.75;;
54561;SDS011;69047;53.358;-1.486;2024-01-06T07:23:32;36.80;;;14.15;;
54561;SDS011;69047;53.358;-1.486;2024-01-06T07:25:58;34.85;;;12.55;;
54561;SDS011;69047;53.358;-1.486;2024-01-06T07:28:24;23.95;;;10.73;;
54561;SDS011;69047;53.358;-1.486;2024-01-06T07:30:49;20.75;;;9.48;;
54561;SDS011;69047;53.358;-1.486;2024-01-06T07:33:15;22.90;;;9.00;;
54561;SDS011;69047;53.358;-1.486;2024-01-06T07:35:40;15.32;;;7.43;;
54561;SDS011;69047;53.358;-1.486;2024-01-06T07:38:08;19.58;;;9.68;;
54561;SDS011;69047;53.358;-1.486;2024-01-06T07:40:37;21.80;;;8.63;;
54561;SDS011;69047;53.358;-1.486;2024-01-06T07:43:02;16.13;;;8.00;;
54561;SDS011;69047;53.358;-1.486;2024-01-06T07:45:34;14.52;;;6.57;;
54561;SDS011;69047;53.358;-1.486;2024-01-06T07:48:01;18.58;;;6.95;;
54561;SDS011;69047;53.358;-1.486;2024-01-06T07:50:27;17.83;;;5.80;;
54561;SDS011;69047;53.358;-1.486;2024-01-06T07:52:53;12.70;;;5.22;;
54561;SDS011;69047;53.358;-1.486;2024-01-06T07:55:18;20.83;;;6.35;;
54561;SDS011;69047;53.358;-1.486;2024-01-06T07:57:44;17.35;;;5.30;;
54561;SDS011;69047;53.358;-1.486;2024-01-06T08:00:10;13.23;;;3.47;;
54561;SDS011;69047;53.358;-1.486;2024-01-06T08:02:39;10.73;;;4.03;;
54561;SDS011;69047;53.358;-1.486;2024-01-06T08:05:05;12.60;;;4.90;;
54561;SDS011;69047;53.358;-1.486;2024-01-06T08:07:32;14.15;;;4.90;;
54561;SDS011;69047;53.358;-1.486;2024-01-06T08:09:57;18.17;;;5.85;;
54561;SDS011;69047;53.358;-1.486;2024-01-06T08:12:23;19.92;;;6.32;;
54561;SDS011;69047;53.358;-1.486;2024-01-06T08:14:49;15.90;;;7.20;;
54561;SDS011;69047;53.358;-1.486;2024-01-06T08:17:14;13.60;;;5.75;;
54561;SDS011;69047;53.358;-1.486;2024-01-06T08:19:40;18.00;;;7.20;;
54561;SDS011;69047;53.358;-1.486;2024-01-06T08:22:06;27.23;;;7.07;;
54561;SDS011;69047;53.358;-1.486;2024-01-06T08:24:33;19.52;;;8.75;;
54561;SDS011;69047;53.358;-1.486;2024-01-06T08:27:00;16.83;;;7.43;;
54561;SDS011;69047;53.358;-1.486;2024-01-06T08:29:25;28.67;;;6.65;;
54561;SDS011;69047;53.358;-1.486;2024-01-06T08:31:51;17.17;;;5.78;;
54561;SDS011;69047;53.358;-1.486;2024-01-06T08:34:23;23.27;;;7.40;;
54561;SDS011;69047;53.358;-1.486;2024-01-06T08:36:56;12.75;;;5.65;;
54561;SDS011;69047;53.358;-1.486;2024-01-06T08:39:21;11.23;;;5.53;;
54561;SDS011;69047;53.358;-1.486;2024-01-06T08:41:47;11.82;;;4.80;;
54561;SDS011;69047;53.358;-1.486;2024-01-06T08:44:13;16.27;;;6.25;;
54561;SDS011;69047;53.358;-1.486;2024-01-06T08:46:38;16.55;;;6.25;;
54561;SDS011;69047;53.358;-1.486;2024-01-06T08:49:04;19.98;;;7.57;;
54561;SDS011;69047;53.358;-1.486;2024-01-06T08:51:30;16.17;;;6.93;;
54561;SDS011;69047;53.358;-1.486;2024-01-06T08:53:56;15.52;;;7.38;;
54561;SDS011;69047;53.358;-1.486;2024-01-06T08:56:21;18.80;;;6.80;;
54561;SDS011;69047;53.358;-1.486;2024-01-06T08:58:47;15.98;;;6.90;;
54561;SDS011;69047;53.358;-1.486;2024-01-06T09:01:12;18.83;;;7.47;;
54561;SDS011;69047;53.358;-1.486;2024-01-06T09:03:38;21.30;;;6.38;;
54561;SDS011;69047;53.358;-1.486;2024-01-06T09:06:04;22.00;;;6.97;;
54561;SDS011;69047;53.358;-1.486;2024-01-06T09:08:31;17.95;;;6.65;;
54561;SDS011;69047;53.358;-1.486;2024-01-06T09:10:57;18.92;;;6.65;;
54561;SDS011;69047;53.358;-1.486;2024-01-06T09:13:23;20.92;;;6.50;;
54561;SDS011;69047;53.358;-1.486;2024-01-06T09:15:50;16.05;;;6.25;;
54561;SDS011;69047;53.358;-1.486;2024-01-06T09:18:16;13.70;;;5.75;;
54561;SDS011;69047;53.358;-1.486;2024-01-06T09:20:45;17.98;;;6.60;;
54561;SDS011;69047;53.358;-1.486;2024-01-06T09:23:12;16.38;;;6.47;;
54561;SDS011;69047;53.358;-1.486;2024-01-06T09:25:38;16.60;;;6.43;;
54561;SDS011;69047;53.358;-1.486;2024-01-06T09:28:05;14.77;;;6.38;;
54561;SDS011;69047;53.358;-1.486;2024-01-06T09:30:31;15.32;;;6.93;;
54561;SDS011;69047;53.358;-1.486;2024-01-06T09:32:56;18.90;;;7.72;;
54561;SDS011;69047;53.358;-1.486;2024-01-06T09:35:23;20.52;;;6.20;;
54561;SDS011;69047;53.358;-1.486;2024-01-06T09:37:48;17.80;;;7.82;;
54561;SDS011;69047;53.358;-1.486;2024-01-06T09:40:14;23.02;;;7.75;;
54561;SDS011;69047;53.358;-1.486;2024-01-06T09:42:49;18.13;;;7.55;;
54561;SDS011;69047;53.358;-1.486;2024-01-06T09:45:24;23.08;;;7.63;;
54561;SDS011;69047;53.358;-1.486;2024-01-06T09:48:00;20.08;;;7.45;;
54561;SDS011;69047;53.358;-1.486;2024-01-06T09:50:35;22.80;;;7.72;;
54561;SDS011;69047;53.358;-1.486;2024-01-06T09:53:01;18.50;;;7.47;;
54561;SDS011;69047;53.358;-1.486;2024-01-06T09:55:30;19.73;;;7.50;;
54561;SDS011;69047;53.358;-1.486;2024-01-06T09:57:56;20.67;;;8.73;;
54561;SDS011;69047;53.358;-1.486;2024-01-06T10:00:21;16.60;;;7.80;;
54561;SDS011;69047;53.358;-1.486;2024-01-06T10:02:50;18.30;;;7.32;;
54561;SDS011;69047;53.358;-1.486;2024-01-06T10:05:17;17.80;;;8.02;;
54561;SDS011;69047;53.358;-1.486;2024-01-06T10:07:43;16.63;;;7.00;;
54561;SDS011;69047;53.358;-1.486;2024-01-06T10:10:10;12.10;;;6.15;;
54561;SDS011;69047;53.358;-1.486;2024-01-06T10:12:39;17.75;;;6.38;;
54561;SDS011;69047;53.358;-1.486;2024-01-06T10:15:08;17.03;;;5.37;;
54561;SDS011;69047;53.358;-1.486;2024-01-06T10:17:39;8.55;;;3.15;;
54561;SDS011;69047;53.358;-1.486;2024-01-06T10:20:09;14.73;;;2.90;;
54561;SDS011;69047;53.358;-1.486;2024-01-06T10:22:36;10.02;;;5.47;;
54561;SDS011;69047;53.358;-1.486;2024-01-06T10:25:06;23.38;;;6.47;;
54561;SDS011;69047;53.358;-1.486;2024-01-06T10:27:33;15.52;;;8.15;;
54561;SDS011;69047;53.358;-1.486;2024-01-06T10:30:00;18.13;;;7.07;;
54561;SDS011;69047;53.358;-1.486;2024-01-06T10:32:26;17.50;;;5.47;;
54561;SDS011;69047;53.358;-1.486;2024-01-06T10:34:54;11.82;;;4.05;;
54561;SDS011;69047;53.358;-1.486;2024-01-06T10:37:20;16.45;;;3.63;;
54561;SDS011;69047;53.358;-1.486;2024-01-06T10:39:45;9.23;;;3.92;;
54561;SDS011;69047;53.358;-1.486;2024-01-06T10:42:11;8.68;;;2.35;;
54561;SDS011;69047;53.358;-1.486;2024-01-06T10:44:40;9.73;;;1.23;;
54561;SDS011;69047;53.358;-1.486;2024-01-06T10:47:07;24.52;;;5.50;;
54561;SDS011;69047;53.358;-1.486;2024-01-06T10:49:35;9.88;;;2.50;;
54561;SDS011;69047;53.358;-1.486;2024-01-06T10:52:02;7.03;;;1.90;;
54561;SDS011;69047;53.358;-1.486;2024-01-06T10:54:35;5.70;;;1.98;;
54561;SDS011;69047;53.358;-1.486;2024-01-06T10:57:03;8.90;;;1.75;;
54561;SDS011;69047;53.358;-1.486;2024-01-06T10:59:31;12.23;;;2.13;;
54561;SDS011;69047;53.358;-1.486;2024-01-06T11:01:58;7.40;;;1.63;;
54561;SDS011;69047;53.358;-1.486;2024-01-06T11:04:27;17.60;;;2.92;;
54561;SDS011;69047;53.358;-1.486;2024-01-06T11:06:54;8.63;;;1.55;;
54561;SDS011;69047;53.358;-1.486;2024-01-06T11:09:26;10.77;;;1.77;;
54561;SDS011;69047;53.358;-1.486;2024-01-06T11:11:56;8.90;;;1.38;;
54561;SDS011;69047;53.358;-1.486;2024-01-06T11:14:27;7.40;;;1.17;;
54561;SDS011;69047;53.358;-1.486;2024-01-06T11:17:02;18.45;;;3.67;;
54561;SDS011;69047;53.358;-1.486;2024-01-06T11:24:48;18.77;;;1.85;;
54561;SDS011;69047;53.358;-1.486;2024-01-06T11:27:18;11.65;;;3.05;;
54561;SDS011;69047;53.358;-1.486;2024-01-06T11:29:47;9.40;;;1.27;;
54561;SDS011;69047;53.358;-1.486;2024-01-06T11:32:17;5.47;;;1.17;;
54561;SDS011;69047;53.358;-1.486;2024-01-06T11:34:52;7.00;;;1.95;;
54561;SDS011;69047;53.358;-1.486;2024-01-06T11:37:23;4.57;;;0.98;;
54561;SDS011;69047;53.358;-1.486;2024-01-06T11:39:50;12.27;;;1.75;;
54561;SDS011;69047;53.358;-1.486;2024-01-06T11:42:16;9.55;;;1.30;;
54561;SDS011;69047;53.358;-1.486;2024-01-06T11:44:45;11.63;;;1.98;;
54561;SDS011;69047;53.358;-1.486;2024-01-06T11:47:15;7.97;;;1.50;;
54561;SDS011;69047;53.358;-1.486;2024-01-06T11:49:44;7.93;;;2.00;;
54561;SDS011;69047;53.358;-1.486;2024-01-06T11:52:10;5.82;;;1.08;;
54561;SDS011;69047;53.358;-1.486;2024-01-06T11:54:37;8.82;;;1.45;;
54561;SDS011;69047;53.358;-1.486;2024-01-06T11:57:03;13.85;;;1.75;;
54561;SDS011;69047;53.358;-1.486;2024-01-06T11:59:29;8.07;;;1.67;;
54561;SDS011;69047;53.358;-1.486;2024-01-06T12:01:55;8.07;;;1.92;;
54561;SDS011;69047;53.358;-1.486;2024-01-06T12:04:21;4.95;;;1.42;;
54561;SDS011;69047;53.358;-1.486;2024-01-06T12:06:47;8.57;;;1.75;;
54561;SDS011;69047;53.358;-1.486;2024-01-06T12:09:13;4.75;;;1.98;;
54561;SDS011;69047;53.358;-1.486;2024-01-06T12:11:41;8.05;;;2.33;;
54561;SDS011;69047;53.358;-1.486;2024-01-06T12:14:10;6.13;;;1.50;;
54561;SDS011;69047;53.358;-1.486;2024-01-06T12:16:36;4.20;;;1.63;;
54561;SDS011;69047;53.358;-1.486;2024-01-06T12:19:01;4.57;;;1.30;;
54561;SDS011;69047;53.358;-1.486;2024-01-06T12:21:28;5.97;;;1.58;;
54561;SDS011;69047;53.358;-1.486;2024-01-06T12:24:17;10.60;;;1.80;;
54561;SDS011;69047;53.358;-1.486;2024-01-06T12:26:48;9.05;;;1.75;;
54561;SDS011;69047;53.358;-1.486;2024-01-06T12:29:14;7.22;;;1.60;;
54561;SDS011;69047;53.358;-1.486;2024-01-06T12:31:40;10.02;;;1.65;;
54561;SDS011;69047;53.358;-1.486;2024-01-06T12:34:15;7.40;;;1.90;;
54561;SDS011;69047;53.358;-1.486;2024-01-06T12:36:50;8.45;;;1.88;;
54561;SDS011;69047;53.358;-1.486;2024-01-06T12:39:17;6.63;;;1.73;;
54561;SDS011;69047;53.358;-1.486;2024-01-06T12:41:43;8.50;;;2.10;;
54561;SDS011;69047;53.358;-1.486;2024-01-06T12:44:09;7.03;;;1.80;;
54561;SDS011;69047;53.358;-1.486;2024-01-06T12:46:35;10.25;;;1.35;;
54561;SDS011;69047;53.358;-1.486;2024-01-06T12:49:00;9.05;;;2.08;;
54561;SDS011;69047;53.358;-1.486;2024-01-06T12:51:27;7.75;;;2.25;;
54561;SDS011;69047;53.358;-1.486;2024-01-06T12:53:52;18.25;;;3.30;;
54561;SDS011;69047;53.358;-1.486;2024-01-06T12:56:20;12.65;;;2.20;;
54561;SDS011;69047;53.358;-1.486;2024-01-06T12:58:46;7.20;;;2.40;;
54561;SDS011;69047;53.358;-1.486;2024-01-06T13:01:11;10.95;;;1.48;;
54561;SDS011;69047;53.358;-1.486;2024-01-06T13:03:37;5.07;;;1.13;;
54561;SDS011;69047;53.358;-1.486;2024-01-06T13:06:03;14.57;;;3.15;;
54561;SDS011;69047;53.358;-1.486;2024-01-06T13:08:28;5.15;;;1.73;;
54561;SDS011;69047;53.358;-1.486;2024-01-06T13:10:57;7.03;;;1.60;;
54561;SDS011;69047;53.358;-1.486;2024-01-06T13:13:23;8.88;;;1.40;;
54561;SDS011;69047;53.358;-1.486;2024-01-06T13:15:48;11.40;;;2.00;;
54561;SDS011;69047;53.358;-1.486;2024-01-06T13:18:14;33.50;;;10.18;;
54561;SDS011;69047;53.358;-1.486;2024-01-06T13:20:39;9.20;;;2.35;;
54561;SDS011;69047;53.358;-1.486;2024-01-06T13:23:08;11.63;;;2.00;;
54561;SDS011;69047;53.358;-1.486;2024-01-06T13:25:34;9.50;;;1.67;;
54561;SDS011;69047;53.358;-1.486;2024-01-06T13:28:00;9.45;;;1.80;;
54561;SDS011;69047;53.358;-1.486;2024-01-06T13:30:25;5.70;;;1.23;;
54561;SDS011;69047;53.358;-1.486;2024-01-06T13:32:51;10.00;;;2.60;;
54561;SDS011;69047;53.358;-1.486;2024-01-06T13:35:19;8.65;;;1.75;;
54561;SDS011;69047;53.358;-1.486;2024-01-06T13:37:45;5.78;;;1.58;;
54561;SDS011;69047;53.358;-1.486;2024-01-06T13:40:13;9.82;;;1.75;;
54561;SDS011;69047;53.358;-1.486;2024-01-06T13:42:39;13.63;;;2.47;;
54561;SDS011;69047;53.358;-1.486;2024-01-06T13:45:05;5.07;;;1.70;;
54561;SDS011;69047;53.358;-1.486;2024-01-06T13:47:31;9.30;;;1.73;;
54561;SDS011;69047;53.358;-1.486;2024-01-06T13:49:57;9.02;;;2.08;;
54561;SDS011;69047;53.358;-1.486;2024-01-06T13:52:26;12.82;;;1.80;;
54561;SDS011;69047;53.358;-1.486;2024-01-06T13:54:54;8.18;;;2.70;;
54561;SDS011;69047;53.358;-1.486;2024-01-06T13:57:19;10.95;;;1.45;;
54561;SDS011;69047;53.358;-1.486;2024-01-06T13:59:45;11.07;;;2.00;;
54561;SDS011;69047;53.358;-1.486;2024-01-06T14:02:11;4.28;;;2.10;;
54561;SDS011;69047;53.358;-1.486;2024-01-06T14:04:37;8.52;;;2.20;;
54561;SDS011;69047;53.358;-1.486;2024-01-06T14:07:02;12.48;;;2.67;;
54561;SDS011;69047;53.358;-1.486;2024-01-06T14:09:29;15.50;;;3.63;;
54561;SDS011;69047;53.358;-1.486;2024-01-06T14:11:55;10.95;;;2.60;;
54561;SDS011;69047;53.358;-1.486;2024-01-06T14:17:00;14.82;;;3.03;;
54561;SDS011;69047;53.358;-1.486;2024-01-06T14:19:25;7.88;;;2.38;;
54561;SDS011;69047;53.358;-1.486;2024-01-06T14:21:51;9.48;;;2.70;;
54561;SDS011;69047;53.358;-1.486;2024-01-06T14:24:16;13.95;;;3.20;;
54561;SDS011;69047;53.358;-1.486;2024-01-06T14:26:49;9.55;;;2.95;;
54561;SDS011;69047;53.358;-1.486;2024-01-06T14:29:15;21.13;;;4.90;;
54561;SDS011;69047;53.358;-1.486;2024-01-06T14:31:44;19.67;;;6.40;;